Time;durP1;ratioP1;P1;durP2;ratioP2;P2;SDS_P1;SDS_P2;PMS_P1;PMS_P2;Temp;Humidity;BMP_temperature;BMP_pressure;BME280_temperature;BME280_humidity;BME280_pressure;Samples;Min_cycle;Max_cycle;Signal;HPM_P1;HPM_P2
2024/03/22 00:02:16;;;;;;;13.20;11.80;;;;;;;9.98;55.94;101911.34;107170;1264;23183;-57
2024/03/22 00:04:43;;;;;;;12.80;11.50;;;;;;;10.00;55.99;101914.11;107043;1258;24051;-57
2024/03/22 00:07:10;;;;;;;11.50;10.20;;;;;;;10.00;55.93;101907.70;106470;1254;1003814;-57
2024/03/22 00:09:37;;;;;;;12.20;10.90;;;;;;;10.01;55.81;101905.62;106900;1263;25366;-57
2024/03/22 00:12:04;;;;;;;13.10;11.30;;;;;;;10.01;55.82;101906.32;107059;1257;25551;-57
2024/03/22 00:14:32;;;;;;;14.80;12.30;;;;;;;10.01;55.92;101905.62;106885;1259;22543;-57
2024/03/22 00:17:01;;;;;;;14.30;12.70;;;;;;;10.01;55.95;101905.63;106355;1254;1003223;-58
2024/03/22 00:19:28;;;;;;;13.20;11.80;;;;;;;9.99;56.05;101910.30;107137;1262;22624;-57
2024/03/22 00:21:55;;;;;;;14.60;12.10;;;;;;;9.99;56.17;101908.75;106826;1260;25347;-56
2024/03/22 00:24:22;;;;;;;16.90;12.90;;;;;;;10.00;56.21;101907.00;106368;1257;1003756;-59
2024/03/22 00:26:49;;;;;;;14.40;12.70;;;;;;;10.00;56.20;101906.31;107145;1254;25347;-58
2024/03/22 00:29:16;;;;;;;16.10;13.80;;;;;;;10.00;56.23;101903.19;107209;1250;25347;-59
2024/03/22 00:31:44;;;;;;;18.20;13.70;;;;;;;10.00;56.31;101899.02;107037;1254;25859;-57
2024/03/22 00:34:11;;;;;;;16.90;14.10;;;;;;;9.98;56.27;101899.04;106656;1267;25379;-57
2024/03/22 00:36:37;;;;;;;17.00;13.40;;;;;;;9.99;56.44;101898.68;106981;1255;24492;-57
2024/03/22 00:39:05;;;;;;;17.50;13.30;;;;;;;9.99;56.47;101895.40;107053;1252;25347;-58
2024/03/22 00:41:32;;;;;;;14.60;13.00;;;;;;;10.00;56.56;101893.13;107110;1263;22538;-57
2024/03/22 00:43:59;;;;;;;16.60;13.20;;;;;;;10.01;56.65;101893.83;106988;1251;25372;-57
2024/03/22 00:46:26;;;;;;;15.30;13.60;;;;;;;10.01;56.65;101892.63;107106;1254;25366;-57
2024/03/22 00:48:53;;;;;;;16.00;13.70;;;;;;;10.03;56.76;101891.05;107107;1257;25488;-58
2024/03/22 00:51:20;;;;;;;15.40;12.60;;;;;;;10.03;56.81;101888.80;107090;1263;24208;-57
2024/03/22 00:53:47;;;;;;;16.00;13.60;;;;;;;10.04;56.92;101887.77;107181;1256;25356;-58
2024/03/22 00:56:14;;;;;;;16.10;13.90;;;;;;;10.03;57.04;101889.67;106982;1254;25312;-58
2024/03/22 00:58:41;;;;;;;14.40;12.60;;;;;;;10.05;57.24;101891.40;107054;1260;25395;-57
2024/03/22 01:01:08;;;;;;;16.00;14.30;;;;;;;10.07;57.24;101893.13;107254;1263;25344;-57
2024/03/22 01:03:35;;;;;;;17.60;14.30;;;;;;;10.08;57.30;101895.73;107097;1261;25384;-57
2024/03/22 01:06:02;;;;;;;15.50;13.50;;;;;;;10.07;57.37;101894.16;107184;1254;25539;-58
2024/03/22 01:08:30;;;;;;;18.30;14.30;;;;;;;10.08;57.57;101896.25;107086;1257;25368;-58
2024/03/22 01:10:57;;;;;;;18.20;14.50;;;;;;;10.16;57.47;101896.63;107147;1266;25411;-58
2024/03/22 01:13:24;;;;;;;16.70;14.10;;;;;;;10.21;57.44;101897.98;106967;1257;25347;-57
2024/03/22 01:15:51;;;;;;;16.20;14.00;;;;;;;10.23;57.65;101900.41;107155;1257;24254;-58
2024/03/22 01:18:18;;;;;;;16.30;14.40;;;;;;;10.23;57.54;101904.58;106870;1259;25341;-58
2024/03/22 01:20:45;;;;;;;14.90;13.30;;;;;;;10.24;57.71;101902.84;106279;1257;1003092;-58
2024/03/22 01:23:12;;;;;;;15.00;13.30;;;;;;;10.27;57.71;101903.86;106913;1256;25497;-58
2024/03/22 01:25:39;;;;;;;13.90;12.20;;;;;;;10.27;57.87;101897.45;106870;1257;25350;-58
2024/03/22 01:28:07;;;;;;;13.90;12.50;;;;;;;10.28;57.96;101896.59;107093;1257;25353;-58
2024/03/22 01:30:35;;;;;;;15.90;13.70;;;;;;;10.27;57.86;101890.18;107065;1254;25353;-58
2024/03/22 01:33:02;;;;;;;15.00;13.40;;;;;;;10.25;57.87;101887.93;106160;1265;1003032;-58
2024/03/22 01:35:29;;;;;;;14.90;13.30;;;;;;;10.22;57.96;101890.02;107200;1257;25360;-57
2024/03/22 01:37:56;;;;;;;15.20;13.40;;;;;;;10.19;58.02;101887.08;106098;1267;1002769;-58
2024/03/22 01:40:23;;;;;;;15.60;13.90;;;;;;;10.18;58.03;101886.91;107050;1257;25375;-58
2024/03/22 01:42:53;;;;;;;14.20;11.70;;;;;;;10.16;58.23;101884.66;107142;1251;25414;-58
2024/03/22 01:45:20;;;;;;;15.10;13.50;;;;;;;10.14;58.33;101886.21;106356;1250;1003551;-58
2024/03/22 01:47:47;;;;;;;14.50;13.00;;;;;;;10.13;58.47;101882.76;107118;1256;25369;-58
2024/03/22 01:50:15;;;;;;;14.90;12.20;;;;;;;10.13;58.53;101883.79;107088;1257;23581;-58
2024/03/22 01:52:42;;;;;;;13.90;12.50;;;;;;;10.13;58.71;101882.92;106880;1259;24432;-58
2024/03/22 01:55:09;;;;;;;12.60;11.30;;;;;;;10.13;58.67;101885.18;106425;1254;1002987;-58
2024/03/22 01:57:36;;;;;;;15.30;12.70;;;;;;;10.13;58.76;101885.36;107090;1257;25464;-58
2024/03/22 02:00:04;;;;;;;14.30;11.90;;;;;;;10.13;58.83;101884.14;106992;1253;25372;-58
2024/03/22 02:02:40;;;;;;;14.40;12.00;;;;;;;10.13;58.81;101887.44;106430;1263;1003238;-57
2024/03/22 02:05:19;;;;;;;15.20;13.30;;;;;;;10.12;58.97;101889.36;107069;1257;25357;-58
2024/03/22 02:07:46;;;;;;;14.00;12.50;;;;;;;10.11;59.12;101887.79;107103;1252;25360;-57
2024/03/22 02:10:13;;;;;;;16.20;13.00;;;;;;;10.10;59.13;101886.23;106330;1254;1003121;-58
2024/03/22 02:12:40;;;;;;;14.10;12.10;;;;;;;10.10;59.43;101882.05;106551;1253;431071;-57
2024/03/22 02:15:08;;;;;;;15.90;12.60;;;;;;;10.10;59.50;101883.95;106990;1254;25412;-58
2024/03/22 02:17:35;;;;;;;14.40;12.60;;;;;;;10.11;59.54;101882.58;107122;1263;25300;-58
2024/03/22 02:20:04;;;;;;;15.30;12.40;;;;;;;10.11;59.54;101881.20;107123;1251;25360;-57
2024/03/22 02:22:31;;;;;;;13.60;12.00;;;;;;;10.12;59.65;101885.52;106368;1250;1003534;-58
2024/03/22 02:24:58;;;;;;;13.30;11.90;;;;;;;10.15;59.77;101886.56;106845;1273;25497;-58
2024/03/22 02:27:25;;;;;;;14.10;12.60;;;;;;;10.17;59.73;101894.02;106835;1267;25412;-57
2024/03/22 02:29:53;;;;;;;14.30;12.70;;;;;;;10.19;59.69;101898.00;106861;1269;25353;-59
2024/03/22 02:32:20;;;;;;;13.40;12.00;;;;;;;10.21;59.70;101900.95;107112;1257;24252;-58
2024/03/22 02:34:47;;;;;;;15.90;14.20;;;;;;;10.23;59.79;101904.41;107135;1257;25424;-58
2024/03/22 02:37:28;;;;;;;17.40;13.80;;;;;;;10.23;59.65;101906.48;106851;1269;24714;-58
2024/03/22 02:39:55;;;;;;;15.50;13.50;;;;;;;10.21;59.72;101905.45;106360;1256;1002849;-58
2024/03/22 02:42:22;;;;;;;17.10;13.70;;;;;;;10.19;59.62;101909.09;107128;1254;24200;-58
2024/03/22 02:44:49;;;;;;;15.60;12.60;;;;;;;10.18;59.86;101908.23;106267;1252;1002879;-59
2024/03/22 02:47:16;;;;;;;14.10;12.60;;;;;;;10.16;59.80;101907.71;107207;1254;25293;-58
2024/03/22 02:49:43;;;;;;;14.60;13.10;;;;;;;10.12;59.82;101908.06;107158;1254;25468;-58
2024/03/22 02:52:10;;;;;;;15.70;13.20;;;;;;;10.06;59.78;101908.39;107111;1264;25802;-58
2024/03/22 02:54:37;;;;;;;15.60;12.90;;;;;;;9.98;60.00;101912.20;107026;1256;25340;-58
2024/03/22 02:57:04;;;;;;;14.90;12.80;;;;;;;9.93;60.06;101911.17;107154;1254;25377;-61
2024/03/22 02:59:31;;;;;;;13.40;12.00;;;;;;;9.89;60.12;101911.35;107107;1254;25334;-60
2024/03/22 03:01:58;;;;;;;14.00;12.60;;;;;;;9.85;60.12;101914.14;106849;1254;25397;-59
2024/03/22 03:04:25;;;;;;;14.20;12.70;;;;;;;9.81;60.22;101916.56;106895;1257;25424;-59
2024/03/22 03:06:52;;;;;;;13.90;12.30;;;;;;;9.78;60.24;101913.79;106792;1253;25347;-59
2024/03/22 03:09:21;;;;;;;14.20;12.70;;;;;;;9.73;60.24;101912.92;107010;1257;25414;-59
2024/03/22 03:11:48;;;;;;;14.80;13.30;;;;;;;9.70;60.33;101909.28;107196;1257;25366;-59
2024/03/22 03:14:15;;;;;;;14.10;12.60;;;;;;;9.66;60.43;101907.20;107155;1254;25375;-59
2024/03/22 03:16:42;;;;;;;14.30;12.60;;;;;;;9.63;60.43;101904.07;106366;1256;1003657;-59
2024/03/22 03:19:09;;;;;;;13.20;11.80;;;;;;;9.60;60.49;101909.10;107219;1266;25497;-59
2024/03/22 03:21:36;;;;;;;13.00;11.50;;;;;;;9.58;60.57;101912.39;106954;1259;25449;-59
2024/03/22 03:24:04;;;;;;;13.10;11.70;;;;;;;9.55;60.61;101912.73;106147;1257;1002910;-60
2024/03/22 03:26:31;;;;;;;12.70;11.40;;;;;;;9.53;60.70;101914.63;107137;1260;25347;-59
2024/03/22 03:28:58;;;;;;;13.30;12.00;;;;;;;9.53;60.73;101913.77;106813;1259;25375;-59
2024/03/22 03:31:25;;;;;;;12.70;11.30;;;;;;;9.42;61.21;101912.55;107063;1256;25415;-59
2024/03/22 03:33:55;;;;;;;13.80;12.30;;;;;;;9.40;61.38;101916.19;107245;1255;22525;-59
2024/03/22 03:36:22;;;;;;;13.70;12.30;;;;;;;9.39;61.45;101916.70;106421;1251;1003425;-60
2024/03/22 03:38:49;;;;;;;13.80;12.30;;;;;;;9.38;61.52;101921.89;107053;1256;25349;-59
2024/03/22 03:41:15;;;;;;;15.50;12.10;;;;;;;9.38;61.63;101922.41;107181;1254;25350;-60
2024/03/22 03:43:43;;;;;;;14.50;12.80;;;;;;;9.37;61.74;101928.47;106391;1254;1003723;-59
2024/03/22 03:46:09;;;;;;;14.90;13.30;;;;;;;9.36;61.79;101931.08;107196;1265;23872;-60
2024/03/22 03:48:37;;;;;;;15.90;14.20;;;;;;;9.37;61.70;101933.31;107101;1254;25350;-59
2024/03/22 03:51:05;;;;;;;15.90;14.00;;;;;;;9.36;61.79;101940.06;107115;1254;25424;-59
2024/03/22 03:53:32;;;;;;;17.00;14.10;;;;;;;9.36;61.77;101947.00;107165;1251;22639;-60
2024/03/22 03:55:59;;;;;;;14.90;13.40;;;;;;;9.35;61.91;101946.48;107100;1251;25493;-60
2024/03/22 03:58:26;;;;;;;16.20;14.50;;;;;;;9.34;61.86;101953.05;107054;1253;25372;-60
2024/03/22 04:00:53;;;;;;;16.50;14.70;;;;;;;9.32;61.91;101952.02;107074;1257;25484;-59
2024/03/22 04:03:20;;;;;;;16.20;14.30;;;;;;;9.31;62.01;101951.33;107194;1263;25465;-59
2024/03/22 04:05:55;;;;;;;20.20;16.30;;;;;;;9.30;61.95;101957.55;107116;1251;25375;-60
2024/03/22 04:08:22;;;;;;;18.20;16.20;;;;;;;9.27;61.85;101958.08;106466;1262;1003130;-59
2024/03/22 04:10:53;;;;;;;19.40;16.60;;;;;;;9.24;62.02;101959.63;106879;1260;25383;-60
2024/03/22 04:13:20;;;;;;;19.70;17.20;;;;;;;9.21;61.91;101961.50;107216;1257;25366;-60
2024/03/22 04:15:47;;;;;;;17.90;16.00;;;;;;;9.19;62.08;101962.53;107020;1259;25357;-59
2024/03/22 04:18:14;;;;;;;20.30;17.60;;;;;;;9.18;62.21;101962.36;106858;1266;25375;-60
2024/03/22 04:20:41;;;;;;;22.70;18.20;;;;;;;9.19;62.28;101961.33;107073;1250;22742;-59
2024/03/22 04:23:08;;;;;;;21.30;18.50;;;;;;;9.20;62.33;101968.94;107127;1257;25347;-59
2024/03/22 04:25:35;;;;;;;20.30;18.20;;;;;;;9.21;62.38;101966.88;107090;1251;25497;-59
2024/03/22 04:28:03;;;;;;;20.20;17.90;;;;;;;9.25;62.53;101966.37;106327;1263;1003090;-59
2024/03/22 04:30:30;;;;;;;19.50;16.40;;;;;;;9.27;62.43;101969.50;107192;1250;22682;-59
2024/03/22 04:32:57;;;;;;;19.30;16.60;;;;;;;9.29;62.50;101973.30;107067;1255;25347;-59
2024/03/22 04:35:24;;;;;;;21.50;17.60;;;;;;;9.30;62.35;101979.19;107099;1257;25347;-59
2024/03/22 04:37:51;;;;;;;21.40;17.60;;;;;;;9.28;62.22;101978.66;106415;1251;1003711;-59
2024/03/22 04:40:18;;;;;;;20.60;17.30;;;;;;;9.26;62.14;101974.86;107139;1254;25347;-60
2024/03/22 04:42:45;;;;;;;19.70;17.50;;;;;;;9.23;62.22;101979.35;107115;1263;25424;-60
2024/03/22 04:45:12;;;;;;;19.80;17.50;;;;;;;9.23;62.39;101979.52;107159;1256;25385;-60
2024/03/22 04:47:42;;;;;;;20.30;16.90;;;;;;;9.23;62.26;101978.66;106757;1266;25375;-59
2024/03/22 04:50:09;;;;;;;17.90;15.00;;;;;;;9.22;62.30;101975.70;107176;1266;25248;-60
2024/03/22 04:52:37;;;;;;;18.10;15.00;;;;;;;9.21;62.40;101971.88;107113;1263;25347;-60
2024/03/22 04:55:05;;;;;;;20.80;16.10;;;;;;;9.19;62.50;101969.80;106832;1256;22679;-61
2024/03/22 04:57:32;;;;;;;17.70;15.40;;;;;;;9.18;62.36;101970.66;106939;1263;22521;-59
2024/03/22 04:59:59;;;;;;;17.40;14.40;;;;;;;9.18;62.47;101973.45;106941;1263;25328;-59
2024/03/22 05:02:26;;;;;;;15.10;13.00;;;;;;;9.20;62.67;101971.70;107157;1257;25424;-59
2024/03/22 05:04:52;;;;;;;15.80;13.90;;;;;;;9.22;62.77;101972.41;107109;1254;22538;-60
2024/03/22 05:07:19;;;;;;;15.90;13.40;;;;;;;9.25;62.77;101975.20;107044;1257;24214;-60
2024/03/22 05:09:46;;;;;;;14.80;13.20;;;;;;;9.29;62.78;101973.30;106861;1262;25338;-59
2024/03/22 05:12:13;;;;;;;14.40;12.10;;;;;;;9.30;62.91;101976.25;106934;1257;25350;-60
2024/03/22 05:14:40;;;;;;;14.00;12.50;;;;;;;9.31;62.73;101981.11;106426;1253;1003006;-59
2024/03/22 05:17:07;;;;;;;12.40;10.80;;;;;;;9.29;62.59;101981.10;107164;1257;25351;-59
2024/03/22 05:19:34;;;;;;;12.40;10.70;;;;;;;9.28;62.64;101981.44;107069;1263;25424;-59
2024/03/22 05:22:02;;;;;;;11.70;10.40;;;;;;;9.28;62.66;101982.14;107174;1263;25347;-59
2024/03/22 05:24:30;;;;;;;12.90;10.70;;;;;;;9.29;62.58;101982.31;106990;1257;25427;-60
2024/03/22 05:26:58;;;;;;;13.40;11.00;;;;;;;9.28;62.62;101979.36;106858;1262;22623;-60
2024/03/22 05:29:25;;;;;;;14.90;10.70;;;;;;;9.28;62.58;101979.54;107179;1254;25375;-60
2024/03/22 05:31:52;;;;;;;13.20;11.20;;;;;;;9.28;62.55;101978.85;107094;1254;25350;-60
2024/03/22 05:34:19;;;;;;;11.60;10.20;;;;;;;9.29;62.56;101975.21;106139;1267;1003046;-60
2024/03/22 05:36:47;;;;;;;11.80;10.60;;;;;;;9.34;62.44;101973.84;106798;1274;25350;-60
2024/03/22 05:39:13;;;;;;;12.80;10.60;;;;;;;9.47;62.25;101977.16;107143;1256;25347;-59
2024/03/22 05:41:40;;;;;;;11.70;10.10;;;;;;;9.53;62.24;101979.41;106809;1258;25491;-60
2024/03/22 05:44:08;;;;;;;12.10;10.10;;;;;;;9.56;62.14;101975.45;107163;1263;25347;-59
2024/03/22 05:46:35;;;;;;;12.00;10.40;;;;;;;9.60;62.12;101971.29;106426;1257;1003772;-59
2024/03/22 05:49:02;;;;;;;10.80;9.50;;;;;;;9.63;62.05;101969.73;107137;1261;25372;-59
2024/03/22 05:51:32;;;;;;;9.70;8.70;;;;;;;9.66;61.96;101969.40;107164;1254;25415;-59
2024/03/22 05:53:59;;;;;;;11.70;9.40;;;;;;;9.68;61.94;101970.45;107109;1263;25328;-60
2024/03/22 05:56:26;;;;;;;10.80;9.00;;;;;;;9.70;61.99;101971.66;106923;1260;25392;-59
2024/03/22 05:58:53;;;;;;;11.70;9.80;;;;;;;9.74;62.07;101972.53;107085;1256;25353;-59
2024/03/22 06:01:20;;;;;;;11.30;9.70;;;;;;;9.77;61.96;101968.72;107142;1251;25348;-59
2024/03/22 06:03:47;;;;;;;14.10;11.30;;;;;;;9.78;61.89;101967.34;107106;1257;25347;-59
2024/03/22 06:06:14;;;;;;;13.10;11.30;;;;;;;9.81;62.02;101964.38;107202;1256;25366;-59
2024/03/22 06:08:43;;;;;;;13.10;11.00;;;;;;;9.84;62.02;101969.41;107142;1256;25424;-59
2024/03/22 06:11:10;;;;;;;12.90;10.40;;;;;;;9.86;62.06;101971.50;106460;1263;1003752;-59
2024/03/22 06:13:42;;;;;;;11.00;9.60;;;;;;;9.89;62.11;101970.80;107040;1261;25375;-59
2024/03/22 06:16:09;;;;;;;12.20;10.00;;;;;;;9.89;61.96;101972.20;107076;1263;25360;-59
2024/03/22 06:18:36;;;;;;;11.30;9.80;;;;;;;9.89;61.98;101971.69;107155;1254;25802;-58
2024/03/22 06:21:04;;;;;;;11.80;10.50;;;;;;;9.89;61.78;101972.02;106905;1260;25356;-59
2024/03/22 06:23:32;;;;;;;14.50;11.80;;;;;;;9.86;61.84;101976.17;107027;1266;22759;-60
2024/03/22 06:25:59;;;;;;;13.40;11.50;;;;;;;9.87;61.94;101978.07;107101;1259;24343;-58
2024/03/22 06:28:28;;;;;;;23.80;17.30;;;;;;;9.92;62.00;101983.98;107163;1257;25442;-58
2024/03/22 06:30:55;;;;;;;27.70;19.70;;;;;;;9.96;61.90;101987.61;107105;1255;25501;-58
2024/03/22 06:33:22;;;;;;;22.50;18.00;;;;;;;9.96;61.65;101985.36;107143;1259;25369;-58
2024/03/22 06:35:49;;;;;;;24.90;18.70;;;;;;;9.97;61.68;101989.52;107048;1266;25400;-58
2024/03/22 06:38:16;;;;;;;21.70;16.70;;;;;;;10.00;61.66;101994.20;106978;1267;25360;-58
2024/03/22 06:40:44;;;;;;;21.00;15.40;;;;;;;10.01;61.50;101999.77;107110;1266;25424;-58
2024/03/22 06:43:11;;;;;;;15.50;12.50;;;;;;;10.01;61.27;102003.22;106909;1256;25406;-58
2024/03/22 06:45:39;;;;;;;14.20;12.30;;;;;;;10.03;61.18;102011.38;107173;1257;25554;-58
2024/03/22 06:48:06;;;;;;;14.70;13.10;;;;;;;10.04;61.05;102014.84;107097;1266;25356;-58
2024/03/22 06:50:33;;;;;;;15.90;14.00;;;;;;;10.04;60.97;102012.40;107094;1257;25459;-59
2024/03/22 06:53:00;;;;;;;19.20;15.30;;;;;;;10.04;60.67;102012.23;107130;1266;25375;-58
2024/03/22 06:55:28;;;;;;;18.40;13.70;;;;;;;10.02;60.77;102012.23;107052;1254;25375;-58
2024/03/22 06:57:54;;;;;;;14.20;12.30;;;;;;;10.04;60.83;102011.89;106980;1269;25484;-57
2024/03/22 07:00:22;;;;;;;12.60;10.20;;;;;;;10.06;60.68;102015.00;106383;1270;1002498;-58
2024/03/22 07:02:50;;;;;;;13.80;10.60;;;;;;;10.09;60.63;102016.23;107101;1257;25487;-58
2024/03/22 07:05:16;;;;;;;14.30;10.70;;;;;;;10.08;60.24;102008.59;107094;1255;25366;-58
2024/03/22 07:07:43;;;;;;;17.40;12.40;;;;;;;10.02;60.19;102007.20;107049;1266;25496;-58
2024/03/22 07:10:10;;;;;;;14.30;11.80;;;;;;;10.01;60.24;102008.94;107081;1256;25366;-59
2024/03/22 07:12:37;;;;;;;15.20;10.60;;;;;;;10.02;60.10;102008.92;106826;1267;22534;-58
2024/03/22 07:15:05;;;;;;;13.10;11.00;;;;;;;10.04;60.08;102008.94;105978;1260;1002982;-58
2024/03/22 07:17:33;;;;;;;13.30;10.70;;;;;;;10.05;60.14;102008.94;107128;1270;25424;-58
2024/03/22 07:20:01;;;;;;;13.00;10.30;;;;;;;10.06;60.07;102008.58;106866;1259;25376;-57
2024/03/22 07:22:28;;;;;;;12.10;10.30;;;;;;;10.07;60.14;102009.45;107011;1257;25455;-57
2024/03/22 07:24:55;;;;;;;16.50;10.90;;;;;;;10.12;60.35;102007.41;107053;1267;25397;-57
2024/03/22 07:27:23;;;;;;;14.00;11.00;;;;;;;10.18;60.17;102011.58;107025;1254;25541;-57
2024/03/22 07:29:50;;;;;;;14.40;11.30;;;;;;;10.20;60.00;102011.06;107236;1254;25356;-57
2024/03/22 07:32:17;;;;;;;13.70;11.20;;;;;;;10.21;59.84;102014.88;107146;1267;25340;-58
2024/03/22 07:34:46;;;;;;;13.70;11.70;;;;;;;10.18;59.85;102009.66;107089;1271;22653;-58
2024/03/22 07:37:13;;;;;;;13.10;10.20;;;;;;;10.18;60.04;102010.37;107034;1267;25337;-58
2024/03/22 07:39:48;;;;;;;15.10;11.80;;;;;;;10.22;60.13;102015.22;107095;1266;25442;-59
2024/03/22 07:42:15;;;;;;;12.40;10.50;;;;;;;10.26;60.11;102015.39;107225;1267;23356;-58
2024/03/22 07:44:42;;;;;;;13.90;11.90;;;;;;;10.30;60.18;102017.64;107105;1271;25439;-58
2024/03/22 07:47:09;;;;;;;15.50;12.40;;;;;;;10.36;60.25;102016.77;107180;1261;25365;-58
2024/03/22 07:49:36;;;;;;;14.40;11.40;;;;;;;10.40;59.94;102017.63;107100;1268;25625;-58
2024/03/22 07:52:04;;;;;;;14.00;11.80;;;;;;;10.41;59.81;102013.81;106412;1257;1002922;-58
2024/03/22 07:54:32;;;;;;;17.40;12.90;;;;;;;10.42;59.80;102012.77;107176;1272;25356;-58
2024/03/22 07:56:59;;;;;;;17.40;13.50;;;;;;;10.45;59.76;102010.34;106295;1273;1003046;-58
2024/03/22 07:59:26;;;;;;;16.20;12.00;;;;;;;10.47;59.82;102009.48;107015;1272;25337;-57
2024/03/22 08:01:53;;;;;;;14.70;12.80;;;;;;;10.55;60.12;102009.29;106453;1266;1003111;-58
2024/03/22 08:04:20;;;;;;;15.00;12.20;;;;;;;10.63;59.77;102006.50;107059;1267;25530;-57
2024/03/22 08:06:51;;;;;;;15.40;12.10;;;;;;;10.67;59.08;102008.73;107175;1272;25439;-57
2024/03/22 08:09:18;;;;;;;16.10;12.90;;;;;;;10.66;58.90;102006.83;107117;1254;25524;-58
2024/03/22 08:11:45;;;;;;;24.70;16.40;;;;;;;10.70;59.18;102005.09;106909;1274;25357;-57
2024/03/22 08:14:12;;;;;;;19.00;13.70;;;;;;;10.79;59.35;102010.10;107147;1266;25338;-58
2024/03/22 08:16:40;;;;;;;15.70;12.40;;;;;;;10.89;59.16;102007.80;106791;1267;25395;-58
2024/03/22 08:19:07;;;;;;;13.10;11.40;;;;;;;11.00;58.61;102005.36;106364;1267;1003070;-59
2024/03/22 08:21:34;;;;;;;12.60;11.20;;;;;;;11.11;58.62;102002.52;106925;1267;25418;-58
2024/03/22 08:24:01;;;;;;;13.30;11.80;;;;;;;11.23;58.39;101999.52;107053;1272;24300;-58
2024/03/22 08:26:28;;;;;;;15.20;11.90;;;;;;;11.38;58.28;101998.23;107219;1267;26746;-58
2024/03/22 08:28:56;;;;;;;14.50;11.70;;;;;;;11.51;57.68;101995.20;106065;1266;1003125;-57
2024/03/22 08:31:25;;;;;;;13.50;11.70;;;;;;;11.58;56.79;101993.08;107060;1266;25337;-57
2024/03/22 08:33:52;;;;;;;16.20;11.80;;;;;;;11.63;56.71;101989.73;107139;1266;25427;-57
2024/03/22 08:36:19;;;;;;;17.00;13.70;;;;;;;11.72;56.73;101987.80;107074;1267;25391;-58
2024/03/22 08:38:46;;;;;;;19.60;14.60;;;;;;;11.81;56.47;101984.27;107056;1266;25378;-57
2024/03/22 08:41:13;;;;;;;18.80;14.80;;;;;;;11.90;56.53;101980.71;107010;1273;26643;-57
2024/03/22 08:43:41;;;;;;;18.10;13.80;;;;;;;11.96;55.73;101976.31;106839;1273;25439;-57
2024/03/22 08:46:07;;;;;;;19.10;13.90;;;;;;;12.01;55.88;101974.17;106076;1272;1003095;-57
2024/03/22 08:48:35;;;;;;;14.80;12.70;;;;;;;12.09;56.07;101974.99;107110;1266;25535;-57
2024/03/22 08:51:02;;;;;;;14.10;11.30;;;;;;;12.18;55.87;101974.73;107167;1267;25347;-57
2024/03/22 08:53:30;;;;;;;15.20;11.70;;;;;;;12.27;55.84;101970.48;107119;1266;25351;-57
2024/03/22 08:55:58;;;;;;;13.40;11.20;;;;;;;12.37;55.61;101971.59;106826;1274;24488;-57
2024/03/22 08:58:26;;;;;;;12.20;11.00;;;;;;;12.47;55.58;101969.23;106831;1274;25363;-57
2024/03/22 09:00:53;;;;;;;12.60;10.60;;;;;;;12.58;55.07;101969.81;107162;1266;25383;-57
2024/03/22 09:03:21;;;;;;;12.10;10.90;;;;;;;12.62;54.56;101965.23;107138;1267;25338;-57
2024/03/22 09:05:53;;;;;;;12.10;10.50;;;;;;;12.65;54.49;101963.28;107157;1266;25478;-57
2024/03/22 09:08:34;;;;;;;11.20;9.90;;;;;;;12.70;54.55;101963.59;107086;1267;22524;-59
2024/03/22 09:11:02;;;;;;;12.40;10.90;;;;;;;12.74;54.37;101963.19;106992;1273;22538;-57
2024/03/22 09:13:29;;;;;;;11.90;10.70;;;;;;;12.79;54.39;101966.45;107117;1267;25424;-57
2024/03/22 09:16:00;;;;;;;11.10;10.00;;;;;;;12.84;54.19;101964.30;107169;1266;25347;-57
2024/03/22 09:18:27;;;;;;;12.30;10.80;;;;;;;12.86;54.15;101958.17;107080;1267;24460;-57
2024/03/22 09:20:55;;;;;;;13.10;10.70;;;;;;;12.91;54.28;101958.10;107056;1267;25446;-58
2024/03/22 09:23:23;;;;;;;11.40;10.20;;;;;;;13.01;54.20;101955.73;107083;1266;22531;-57
2024/03/22 09:25:50;;;;;;;12.70;10.50;;;;;;;13.11;54.10;101952.50;107116;1271;25375;-57
2024/03/22 09:28:17;;;;;;;11.10;10.00;;;;;;;13.17;54.00;101948.92;106980;1266;25366;-57
2024/03/22 09:30:44;;;;;;;13.00;10.60;;;;;;;13.24;54.05;101945.87;107022;1263;25402;-57
2024/03/22 09:33:23;;;;;;;11.70;10.00;;;;;;;13.35;53.91;101940.49;106721;1274;22650;-56
2024/03/22 09:35:51;;;;;;;11.80;9.80;;;;;;;13.44;53.70;101943.66;106328;1275;24226;-57
2024/03/22 09:38:18;;;;;;;11.70;10.30;;;;;;;13.51;53.60;101941.63;106115;1267;1003801;-56
2024/03/22 09:40:46;;;;;;;11.80;10.50;;;;;;;13.60;53.54;101940.63;106937;1267;25449;-57
2024/03/22 09:43:15;;;;;;;11.70;9.60;;;;;;;13.69;53.16;101940.31;106810;1272;25379;-57
2024/03/22 09:45:42;;;;;;;12.80;11.10;;;;;;;13.76;52.94;101937.74;107038;1267;25322;-56
2024/03/22 09:48:09;;;;;;;11.10;10.00;;;;;;;13.84;52.81;101934.14;106836;1257;25378;-57
2024/03/22 09:50:36;;;;;;;12.30;10.30;;;;;;;13.89;52.44;101933.69;106810;1267;25375;-57
2024/03/22 09:53:03;;;;;;;10.90;9.80;;;;;;;13.93;52.49;101934.34;106953;1267;25375;-57
2024/03/22 09:55:30;;;;;;;12.00;9.90;;;;;;;13.99;52.37;101937.55;106875;1272;25404;-57
2024/03/22 09:57:57;;;;;;;11.20;9.50;;;;;;;14.06;52.31;101937.59;106917;1270;25353;-57
2024/03/22 10:00:26;;;;;;;12.60;9.90;;;;;;;14.09;52.29;101936.14;107119;1267;25391;-57
2024/03/22 10:02:53;;;;;;;12.40;10.40;;;;;;;14.18;51.93;101934.77;107143;1270;25337;-57
2024/03/22 10:05:21;;;;;;;13.90;10.20;;;;;;;14.25;51.70;101936.90;107091;1263;25488;-57
2024/03/22 10:07:48;;;;;;;12.80;10.40;;;;;;;14.30;51.73;101933.17;107115;1267;25411;-57
2024/03/22 10:10:15;;;;;;;13.10;11.60;;;;;;;14.36;51.55;101932.19;107064;1267;25513;-58
2024/03/22 10:12:42;;;;;;;12.30;10.90;;;;;;;14.41;51.46;101926.86;106830;1269;22922;-57
2024/03/22 10:15:09;;;;;;;12.70;11.30;;;;;;;14.47;51.43;101925.19;107101;1260;25313;-57
2024/03/22 10:17:39;;;;;;;11.80;10.60;;;;;;;14.55;51.44;101923.10;107260;1266;25427;-57
2024/03/22 10:20:13;;;;;;;10.60;9.70;;;;;;;14.62;51.24;101921.73;106866;1270;25366;-57
2024/03/22 10:23:00;;;;;;;11.90;10.50;;;;;;;14.69;51.10;101920.02;107092;1270;25383;-57
2024/03/22 10:25:28;;;;;;;13.10;11.60;;;;;;;14.74;50.92;101920.80;107091;1273;25385;-57
2024/03/22 10:27:55;;;;;;;12.50;11.10;;;;;;;14.82;50.87;101919.42;106849;1274;25497;-57
2024/03/22 10:30:24;;;;;;;12.60;11.20;;;;;;;14.89;50.58;101912.98;106786;1270;25469;-57
2024/03/22 10:32:51;;;;;;;12.10;10.90;;;;;;;14.92;50.28;101911.17;107037;1266;25411;-57
2024/03/22 10:35:18;;;;;;;13.20;11.60;;;;;;;14.95;50.52;101908.81;107048;1266;25397;-57
2024/03/22 10:37:46;;;;;;;13.60;11.10;;;;;;;15.04;50.46;101899.36;106995;1267;25411;-56
2024/03/22 10:40:17;;;;;;;11.90;10.20;;;;;;;15.10;50.33;101896.43;106998;1267;25331;-57
2024/03/22 10:42:44;;;;;;;12.40;11.10;;;;;;;15.17;50.18;101888.06;107048;1266;25535;-57
2024/03/22 10:45:12;;;;;;;12.30;11.00;;;;;;;15.18;49.93;101892.21;107024;1267;25254;-57
2024/03/22 10:47:39;;;;;;;11.60;10.40;;;;;;;15.14;50.01;101889.35;105609;1267;1003309;-57
2024/03/22 10:50:11;;;;;;;11.30;10.20;;;;;;;15.14;50.07;101893.38;107144;1271;25350;-57
2024/03/22 10:52:52;;;;;;;12.70;11.30;;;;;;;15.14;49.98;101891.81;106829;1267;25245;-57
2024/03/22 10:55:43;;;;;;;16.50;10.90;;;;;;;15.14;49.80;101890.40;107045;1270;22530;-57
2024/03/22 10:58:16;;;;;;;12.20;10.70;;;;;;;15.17;49.81;101888.24;106725;1277;25372;-57
2024/03/22 11:00:44;;;;;;;16.40;12.40;;;;;;;15.18;49.92;101888.91;106338;1279;22542;-57
2024/03/22 11:03:13;;;;;;;14.50;11.70;;;;;;;15.21;50.10;101885.17;106664;1276;25371;-57
2024/03/22 11:05:46;;;;;;;12.30;11.10;;;;;;;15.29;49.99;101877.30;106283;1276;25535;-58